sensor_id;sensor_type;location;lat;lon;timestamp;P1;durP1;ratioP1;P2;durP2;ratioP2
57467;SDS011;43311;51.196;7.518;2023-07-20T00:00:36;12.32;;;6.18;;
57467;SDS011;43311;51.196;7.518;2023-07-20T00:03:14;10.70;;;5.80;;
57467;SDS011;43311;51.196;7.518;2023-07-20T00:05:44;9.68;;;5.53;;
57467;SDS011;43311;51.196;7.518;2023-07-20T00:08:12;8.32;;;6.00;;
57467;SDS011;43311;51.196;7.518;2023-07-20T00:10:39;11.05;;;5.18;;
57467;SDS011;43311;51.196;7.518;2023-07-20T00:13:05;9.25;;;5.45;;
57467;SDS011;43311;51.196;7.518;2023-07-20T00:15:31;11.38;;;5.72;;
57467;SDS011;43311;51.196;7.518;2023-07-20T00:17:56;9.95;;;5.47;;
57467;SDS011;43311;51.196;7.518;2023-07-20T00:20:23;7.63;;;4.90;;
57467;SDS011;43311;51.196;7.518;2023-07-20T00:22:50;7.65;;;5.25;;
57467;SDS011;43311;51.196;7.518;2023-07-20T00:25:16;9.55;;;5.60;;
57467;SDS011;43311;51.196;7.518;2023-07-20T00:27:42;11.43;;;6.45;;
57467;SDS011;43311;51.196;7.518;2023-07-20T00:30:07;10.35;;;6.40;;
57467;SDS011;43311;51.196;7.518;2023-07-20T00:32:34;11.45;;;7.35;;
57467;SDS011;43311;51.196;7.518;2023-07-20T00:35:00;10.73;;;6.80;;
57467;SDS011;43311;51.196;7.518;2023-07-20T00:37:25;16.02;;;6.90;;
57467;SDS011;43311;51.196;7.518;2023-07-20T00:39:51;11.88;;;6.70;;
57467;SDS011;43311;51.196;7.518;2023-07-20T00:42:17;12.10;;;7.45;;
57467;SDS011;43311;51.196;7.518;2023-07-20T00:44:44;10.43;;;6.80;;
57467;SDS011;43311;51.196;7.518;2023-07-20T00:47:09;14.48;;;8.40;;
57467;SDS011;43311;51.196;7.518;2023-07-20T00:49:35;14.15;;;8.20;;
57467;SDS011;43311;51.196;7.518;2023-07-20T00:52:03;10.68;;;6.88;;
57467;SDS011;43311;51.196;7.518;2023-07-20T00:54:31;8.98;;;6.20;;
57467;SDS011;43311;51.196;7.518;2023-07-20T00:56:58;13.77;;;8.23;;
57467;SDS011;43311;51.196;7.518;2023-07-20T00:59:24;12.32;;;8.15;;
57467;SDS011;43311;51.196;7.518;2023-07-20T01:01:50;16.08;;;8.35;;
57467;SDS011;43311;51.196;7.518;2023-07-20T01:04:16;14.90;;;7.60;;
57467;SDS011;43311;51.196;7.518;2023-07-20T01:06:44;13.95;;;9.05;;
57467;SDS011;43311;51.196;7.518;2023-07-20T01:09:20;15.47;;;8.30;;
57467;SDS011;43311;51.196;7.518;2023-07-20T01:14:31;13.00;;;7.65;;
57467;SDS011;43311;51.196;7.518;2023-07-20T01:16:57;16.48;;;9.25;;
57467;SDS011;43311;51.196;7.518;2023-07-20T01:19:23;12.35;;;8.55;;
57467;SDS011;43311;51.196;7.518;2023-07-20T01:21:56;13.60;;;8.45;;
57467;SDS011;43311;51.196;7.518;2023-07-20T01:24:35;10.93;;;7.45;;
57467;SDS011;43311;51.196;7.518;2023-07-20T01:30:03;15.98;;;8.32;;
57467;SDS011;43311;51.196;7.518;2023-07-20T01:32:48;14.00;;;8.05;;
57467;SDS011;43311;51.196;7.518;2023-07-20T01:35:15;13.57;;;8.38;;
57467;SDS011;43311;51.196;7.518;2023-07-20T01:37:44;13.82;;;8.30;;
57467;SDS011;43311;51.196;7.518;2023-07-20T01:40:12;17.05;;;8.73;;
57467;SDS011;43311;51.196;7.518;2023-07-20T01:42:43;14.15;;;9.90;;
57467;SDS011;43311;51.196;7.518;2023-07-20T01:45:10;15.15;;;9.27;;
57467;SDS011;43311;51.196;7.518;2023-07-20T01:47:35;11.18;;;8.10;;
57467;SDS011;43311;51.196;7.518;2023-07-20T01:50:01;15.73;;;9.65;;
57467;SDS011;43311;51.196;7.518;2023-07-20T01:52:26;14.07;;;9.02;;
57467;SDS011;43311;51.196;7.518;2023-07-20T01:54:52;14.32;;;8.52;;
57467;SDS011;43311;51.196;7.518;2023-07-20T01:57:18;15.48;;;8.23;;
57467;SDS011;43311;51.196;7.518;2023-07-20T01:59:44;12.98;;;8.25;;
57467;SDS011;43311;51.196;7.518;2023-07-20T02:02:10;15.80;;;7.95;;
57467;SDS011;43311;51.196;7.518;2023-07-20T02:04:35;13.48;;;7.70;;
57467;SDS011;43311;51.196;7.518;2023-07-20T02:07:01;10.50;;;7.00;;
57467;SDS011;43311;51.196;7.518;2023-07-20T02:09:26;13.85;;;6.70;;
57467;SDS011;43311;51.196;7.518;2023-07-20T02:11:52;10.52;;;6.85;;
57467;SDS011;43311;51.196;7.518;2023-07-20T02:14:19;14.07;;;7.72;;
57467;SDS011;43311;51.196;7.518;2023-07-20T02:16:44;12.02;;;7.05;;
57467;SDS011;43311;51.196;7.518;2023-07-20T02:19:10;12.85;;;6.90;;
57467;SDS011;43311;51.196;7.518;2023-07-20T02:21:36;10.68;;;6.32;;
57467;SDS011;43311;51.196;7.518;2023-07-20T02:24:01;11.02;;;7.07;;
57467;SDS011;43311;51.196;7.518;2023-07-20T02:26:27;12.88;;;6.82;;
57467;SDS011;43311;51.196;7.518;2023-07-20T02:28:53;13.55;;;6.82;;
57467;SDS011;43311;51.196;7.518;2023-07-20T02:31:18;11.15;;;6.32;;
57467;SDS011;43311;51.196;7.518;2023-07-20T02:33:44;11.60;;;6.63;;
57467;SDS011;43311;51.196;7.518;2023-07-20T02:36:09;9.38;;;6.60;;
57467;SDS011;43311;51.196;7.518;2023-07-20T02:38:35;12.55;;;6.82;;
57467;SDS011;43311;51.196;7.518;2023-07-20T02:41:00;12.63;;;7.18;;
57467;SDS011;43311;51.196;7.518;2023-07-20T02:43:26;11.80;;;7.07;;
57467;SDS011;43311;51.196;7.518;2023-07-20T02:45:52;11.10;;;7.25;;
57467;SDS011;43311;51.196;7.518;2023-07-20T02:48:18;14.95;;;7.25;;
57467;SDS011;43311;51.196;7.518;2023-07-20T02:50:44;17.70;;;7.43;;
57467;SDS011;43311;51.196;7.518;2023-07-20T02:53:09;11.30;;;7.32;;
57467;SDS011;43311;51.196;7.518;2023-07-20T02:55:34;14.48;;;7.38;;
57467;SDS011;43311;51.196;7.518;2023-07-20T02:58:00;12.38;;;7.47;;
57467;SDS011;43311;51.196;7.518;2023-07-20T03:00:25;12.70;;;8.15;;
57467;SDS011;43311;51.196;7.518;2023-07-20T03:02:51;14.80;;;7.82;;
57467;SDS011;43311;51.196;7.518;2023-07-20T03:05:20;14.40;;;7.85;;
57467;SDS011;43311;51.196;7.518;2023-07-20T03:07:47;14.25;;;7.70;;
57467;SDS011;43311;51.196;7.518;2023-07-20T03:10:14;14.48;;;8.13;;
57467;SDS011;43311;51.196;7.518;2023-07-20T03:12:40;13.98;;;7.13;;
57467;SDS011;43311;51.196;7.518;2023-07-20T03:15:06;13.57;;;6.90;;
57467;SDS011;43311;51.196;7.518;2023-07-20T03:17:32;15.00;;;7.82;;
57467;SDS011;43311;51.196;7.518;2023-07-20T03:19:57;11.55;;;7.60;;
57467;SDS011;43311;51.196;7.518;2023-07-20T03:22:24;13.68;;;7.50;;
57467;SDS011;43311;51.196;7.518;2023-07-20T03:24:50;10.82;;;6.97;;
57467;SDS011;43311;51.196;7.518;2023-07-20T03:27:17;12.48;;;7.25;;
57467;SDS011;43311;51.196;7.518;2023-07-20T03:29:43;12.73;;;7.45;;
57467;SDS011;43311;51.196;7.518;2023-07-20T03:32:10;11.35;;;7.35;;
57467;SDS011;43311;51.196;7.518;2023-07-20T03:34:36;16.83;;;8.30;;
57467;SDS011;43311;51.196;7.518;2023-07-20T03:37:01;16.88;;;9.27;;
57467;SDS011;43311;51.196;7.518;2023-07-20T03:39:30;21.83;;;8.65;;
57467;SDS011;43311;51.196;7.518;2023-07-20T03:41:55;14.63;;;8.82;;
57467;SDS011;43311;51.196;7.518;2023-07-20T03:44:21;12.95;;;8.55;;
57467;SDS011;43311;51.196;7.518;2023-07-20T03:46:46;15.50;;;8.95;;
57467;SDS011;43311;51.196;7.518;2023-07-20T03:49:11;14.80;;;7.85;;
57467;SDS011;43311;51.196;7.518;2023-07-20T03:51:37;14.30;;;7.80;;
57467;SDS011;43311;51.196;7.518;2023-07-20T03:54:02;13.93;;;8.05;;
57467;SDS011;43311;51.196;7.518;2023-07-20T03:56:28;13.43;;;7.88;;
57467;SDS011;43311;51.196;7.518;2023-07-20T03:58:53;14.02;;;8.63;;
57467;SDS011;43311;51.196;7.518;2023-07-20T04:01:19;14.25;;;8.25;;
57467;SDS011;43311;51.196;7.518;2023-07-20T04:03:44;17.55;;;8.60;;
57467;SDS011;43311;51.196;7.518;2023-07-20T04:06:10;17.10;;;8.68;;
57467;SDS011;43311;51.196;7.518;2023-07-20T04:08:37;16.98;;;9.10;;
57467;SDS011;43311;51.196;7.518;2023-07-20T04:11:02;19.70;;;10.27;;
57467;SDS011;43311;51.196;7.518;2023-07-20T04:13:28;17.10;;;11.02;;
57467;SDS011;43311;51.196;7.518;2023-07-20T04:15:53;18.23;;;11.27;;
57467;SDS011;43311;51.196;7.518;2023-07-20T04:18:20;21.25;;;11.98;;
57467;SDS011;43311;51.196;7.518;2023-07-20T04:20:45;18.75;;;12.45;;
57467;SDS011;43311;51.196;7.518;2023-07-20T04:23:11;19.70;;;12.57;;
57467;SDS011;43311;51.196;7.518;2023-07-20T04:25:38;22.55;;;14.63;;
57467;SDS011;43311;51.196;7.518;2023-07-20T04:28:08;25.33;;;13.18;;
57467;SDS011;43311;51.196;7.518;2023-07-20T04:30:36;24.37;;;13.67;;
57467;SDS011;43311;51.196;7.518;2023-07-20T04:33:02;24.92;;;12.35;;
57467;SDS011;43311;51.196;7.518;2023-07-20T04:38:15;22.90;;;14.18;;
57467;SDS011;43311;51.196;7.518;2023-07-20T04:40:46;24.83;;;14.63;;
57467;SDS011;43311;51.196;7.518;2023-07-20T04:43:13;22.63;;;12.40;;
57467;SDS011;43311;51.196;7.518;2023-07-20T04:45:40;21.70;;;13.18;;
57467;SDS011;43311;51.196;7.518;2023-07-20T04:48:08;28.58;;;15.15;;
57467;SDS011;43311;51.196;7.518;2023-07-20T04:50:44;25.88;;;14.65;;
57467;SDS011;43311;51.196;7.518;2023-07-20T04:55:38;23.58;;;12.90;;
57467;SDS011;43311;51.196;7.518;2023-07-20T04:58:04;25.80;;;13.98;;
57467;SDS011;43311;51.196;7.518;2023-07-20T05:00:32;26.20;;;14.45;;
57467;SDS011;43311;51.196;7.518;2023-07-20T05:02:58;24.67;;;15.20;;
57467;SDS011;43311;51.196;7.518;2023-07-20T05:05:24;22.48;;;13.70;;
57467;SDS011;43311;51.196;7.518;2023-07-20T05:07:49;27.08;;;14.57;;
57467;SDS011;43311;51.196;7.518;2023-07-20T05:10:15;26.52;;;14.02;;
57467;SDS011;43311;51.196;7.518;2023-07-20T05:12:41;24.08;;;13.68;;
57467;SDS011;43311;51.196;7.518;2023-07-20T05:15:06;25.58;;;15.00;;
57467;SDS011;43311;51.196;7.518;2023-07-20T05:17:34;29.88;;;16.02;;
57467;SDS011;43311;51.196;7.518;2023-07-20T05:20:00;21.63;;;15.25;;
57467;SDS011;43311;51.196;7.518;2023-07-20T05:22:27;24.42;;;14.43;;
57467;SDS011;43311;51.196;7.518;2023-07-20T05:24:52;27.27;;;14.48;;
57467;SDS011;43311;51.196;7.518;2023-07-20T05:27:18;24.40;;;14.10;;
57467;SDS011;43311;51.196;7.518;2023-07-20T05:29:46;23.50;;;13.80;;
57467;SDS011;43311;51.196;7.518;2023-07-20T05:34:37;24.02;;;13.55;;
57467;SDS011;43311;51.196;7.518;2023-07-20T05:37:03;19.98;;;12.73;;
57467;SDS011;43311;51.196;7.518;2023-07-20T05:39:28;22.23;;;12.60;;
57467;SDS011;43311;51.196;7.518;2023-07-20T05:41:54;22.65;;;12.30;;
57467;SDS011;43311;51.196;7.518;2023-07-20T05:44:19;21.20;;;13.30;;
57467;SDS011;43311;51.196;7.518;2023-07-20T05:46:44;24.45;;;12.15;;
57467;SDS011;43311;51.196;7.518;2023-07-20T05:49:10;24.25;;;13.52;;
57467;SDS011;43311;51.196;7.518;2023-07-20T05:51:35;24.10;;;14.80;;
57467;SDS011;43311;51.196;7.518;2023-07-20T05:54:01;25.08;;;13.57;;
57467;SDS011;43311;51.196;7.518;2023-07-20T05:56:27;21.17;;;12.98;;
57467;SDS011;43311;51.196;7.518;2023-07-20T05:58:52;18.35;;;12.98;;
57467;SDS011;43311;51.196;7.518;2023-07-20T06:01:17;20.77;;;14.75;;
57467;SDS011;43311;51.196;7.518;2023-07-20T06:03:44;22.70;;;14.35;;
57467;SDS011;43311;51.196;7.518;2023-07-20T06:06:09;28.25;;;14.50;;
57467;SDS011;43311;51.196;7.518;2023-07-20T06:08:37;25.33;;;14.98;;
57467;SDS011;43311;51.196;7.518;2023-07-20T06:11:02;22.20;;;13.88;;
57467;SDS011;43311;51.196;7.518;2023-07-20T06:13:28;20.77;;;13.98;;
57467;SDS011;43311;51.196;7.518;2023-07-20T06:15:53;27.20;;;14.57;;
57467;SDS011;43311;51.196;7.518;2023-07-20T06:18:20;26.58;;;13.38;;
57467;SDS011;43311;51.196;7.518;2023-07-20T06:20:50;26.45;;;14.35;;
57467;SDS011;43311;51.196;7.518;2023-07-20T06:23:20;22.42;;;13.30;;
57467;SDS011;43311;51.196;7.518;2023-07-20T06:25:47;25.85;;;17.15;;
57467;SDS011;43311;51.196;7.518;2023-07-20T06:28:14;31.30;;;19.17;;
57467;SDS011;43311;51.196;7.518;2023-07-20T06:30:40;27.38;;;17.40;;
57467;SDS011;43311;51.196;7.518;2023-07-20T06:33:05;29.35;;;19.15;;
57467;SDS011;43311;51.196;7.518;2023-07-20T06:35:31;29.77;;;18.17;;
57467;SDS011;43311;51.196;7.518;2023-07-20T06:37:57;33.28;;;18.27;;
57467;SDS011;43311;51.196;7.518;2023-07-20T06:40:25;27.77;;;17.42;;
57467;SDS011;43311;51.196;7.518;2023-07-20T06:42:50;24.92;;;16.15;;
57467;SDS011;43311;51.196;7.518;2023-07-20T06:45:16;27.38;;;17.42;;
57467;SDS011;43311;51.196;7.518;2023-07-20T06:47:41;26.30;;;17.58;;
57467;SDS011;43311;51.196;7.518;2023-07-20T06:50:07;23.17;;;15.18;;
57467;SDS011;43311;51.196;7.518;2023-07-20T06:52:33;21.65;;;13.57;;
57467;SDS011;43311;51.196;7.518;2023-07-20T06:54:59;19.58;;;12.40;;
57467;SDS011;43311;51.196;7.518;2023-07-20T06:57:25;18.25;;;11.75;;
57467;SDS011;43311;51.196;7.518;2023-07-20T06:59:51;20.17;;;12.15;;
57467;SDS011;43311;51.196;7.518;2023-07-20T07:02:16;20.70;;;11.73;;
57467;SDS011;43311;51.196;7.518;2023-07-20T07:04:42;19.75;;;11.48;;
57467;SDS011;43311;51.196;7.518;2023-07-20T07:07:08;17.45;;;11.73;;
57467;SDS011;43311;51.196;7.518;2023-07-20T07:09:37;17.92;;;12.02;;
57467;SDS011;43311;51.196;7.518;2023-07-20T07:12:04;16.58;;;11.38;;
57467;SDS011;43311;51.196;7.518;2023-07-20T07:14:30;21.13;;;12.77;;
57467;SDS011;43311;51.196;7.518;2023-07-20T07:16:56;21.23;;;11.77;;
57467;SDS011;43311;51.196;7.518;2023-07-20T07:19:22;16.50;;;11.63;;
57467;SDS011;43311;51.196;7.518;2023-07-20T07:21:49;17.55;;;11.60;;
57467;SDS011;43311;51.196;7.518;2023-07-20T07:24:16;18.42;;;10.60;;
57467;SDS011;43311;51.196;7.518;2023-07-20T07:26:41;21.10;;;11.90;;
57467;SDS011;43311;51.196;7.518;2023-07-20T07:29:07;17.48;;;10.93;;
57467;SDS011;43311;51.196;7.518;2023-07-20T07:31:34;16.58;;;11.40;;
57467;SDS011;43311;51.196;7.518;2023-07-20T07:34:03;14.80;;;10.73;;
57467;SDS011;43311;51.196;7.518;2023-07-20T07:36:30;18.40;;;11.98;;
57467;SDS011;43311;51.196;7.518;2023-07-20T07:38:56;16.65;;;11.20;;
57467;SDS011;43311;51.196;7.518;2023-07-20T07:41:21;15.40;;;11.60;;
57467;SDS011;43311;51.196;7.518;2023-07-20T07:43:48;17.08;;;11.85;;
57467;SDS011;43311;51.196;7.518;2023-07-20T07:46:13;14.75;;;10.80;;
57467;SDS011;43311;51.196;7.518;2023-07-20T07:48:39;13.70;;;10.50;;
57467;SDS011;43311;51.196;7.518;2023-07-20T07:51:05;12.95;;;10.25;;
57467;SDS011;43311;51.196;7.518;2023-07-20T07:53:31;11.63;;;10.02;;
57467;SDS011;43311;51.196;7.518;2023-07-20T07:55:58;17.87;;;10.73;;
57467;SDS011;43311;51.196;7.518;2023-07-20T07:58:24;12.68;;;10.07;;
57467;SDS011;43311;51.196;7.518;2023-07-20T08:00:49;12.82;;;10.30;;
57467;SDS011;43311;51.196;7.518;2023-07-20T08:03:15;12.50;;;9.60;;
57467;SDS011;43311;51.196;7.518;2023-07-20T08:05:41;14.25;;;9.98;;
57467;SDS011;43311;51.196;7.518;2023-07-20T08:08:06;12.20;;;8.82;;
57467;SDS011;43311;51.196;7.518;2023-07-20T08:10:31;11.50;;;7.38;;
57467;SDS011;43311;51.196;7.518;2023-07-20T08:12:57;8.75;;;6.20;;
57467;SDS011;43311;51.196;7.518;2023-07-20T08:15:22;7.35;;;5.88;;
57467;SDS011;43311;51.196;7.518;2023-07-20T08:17:48;9.13;;;7.00;;
57467;SDS011;43311;51.196;7.518;2023-07-20T08:20:14;9.70;;;6.72;;
57467;SDS011;43311;51.196;7.518;2023-07-20T08:22:41;9.25;;;7.03;;
57467;SDS011;43311;51.196;7.518;2023-07-20T08:25:07;9.13;;;6.93;;
57467;SDS011;43311;51.196;7.518;2023-07-20T08:27:33;11.07;;;6.80;;
57467;SDS011;43311;51.196;7.518;2023-07-20T08:29:59;10.63;;;6.63;;
57467;SDS011;43311;51.196;7.518;2023-07-20T08:32:25;9.68;;;7.10;;
57467;SDS011;43311;51.196;7.518;2023-07-20T08:34:50;9.18;;;6.75;;
57467;SDS011;43311;51.196;7.518;2023-07-20T08:37:16;9.15;;;6.15;;
57467;SDS011;43311;51.196;7.518;2023-07-20T08:39:41;8.80;;;6.47;;
57467;SDS011;43311;51.196;7.518;2023-07-20T08:42:09;7.72;;;5.45;;
57467;SDS011;43311;51.196;7.518;2023-07-20T08:44:36;7.15;;;5.97;;
57467;SDS011;43311;51.196;7.518;2023-07-20T08:47:03;6.72;;;5.28;;
57467;SDS011;43311;51.196;7.518;2023-07-20T08:49:31;6.60;;;4.82;;
57467;SDS011;43311;51.196;7.518;2023-07-20T08:51:57;6.05;;;4.13;;
57467;SDS011;43311;51.196;7.518;2023-07-20T08:54:24;4.05;;;3.55;;
57467;SDS011;43311;51.196;7.518;2023-07-20T08:56:52;4.60;;;3.72;;
57467;SDS011;43311;51.196;7.518;2023-07-20T08:59:22;4.78;;;3.67;;
57467;SDS011;43311;51.196;7.518;2023-07-20T09:01:49;4.13;;;3.05;;
57467;SDS011;43311;51.196;7.518;2023-07-20T09:04:16;5.78;;;3.22;;
57467;SDS011;43311;51.196;7.518;2023-07-20T09:06:42;5.53;;;3.28;;
57467;SDS011;43311;51.196;7.518;2023-07-20T09:09:08;4.78;;;3.65;;
57467;SDS011;43311;51.196;7.518;2023-07-20T09:11:35;6.50;;;3.72;;
57467;SDS011;43311;51.196;7.518;2023-07-20T09:14:04;5.68;;;4.40;;
57467;SDS011;43311;51.196;7.518;2023-07-20T09:16:50;5.95;;;4.07;;
57467;SDS011;43311;51.196;7.518;2023-07-20T09:19:18;4.20;;;3.72;;
57467;SDS011;43311;51.196;7.518;2023-07-20T09:21:45;9.30;;;3.90;;
57467;SDS011;43311;51.196;7.518;2023-07-20T09:24:12;4.18;;;2.92;;
57467;SDS011;43311;51.196;7.518;2023-07-20T09:26:43;2.95;;;1.83;;
57467;SDS011;43311;51.196;7.518;2023-07-20T09:29:09;3.17;;;2.58;;
57467;SDS011;43311;51.196;7.518;2023-07-20T09:31:37;2.92;;;1.80;;
57467;SDS011;43311;51.196;7.518;2023-07-20T09:36:38;3.78;;;2.20;;
57467;SDS011;43311;51.196;7.518;2023-07-20T09:39:03;3.33;;;2.20;;
57467;SDS011;43311;51.196;7.518;2023-07-20T09:41:41;2.42;;;1.92;;
57467;SDS011;43311;51.196;7.518;2023-07-20T09:44:07;3.72;;;1.90;;
57467;SDS011;43311;51.196;7.518;2023-07-20T09:46:48;5.28;;;2.78;;
57467;SDS011;43311;51.196;7.518;2023-07-20T09:49:14;4.20;;;3.03;;
57467;SDS011;43311;51.196;7.518;2023-07-20T09:51:42;3.58;;;2.10;;
57467;SDS011;43311;51.196;7.518;2023-07-20T09:54:09;2.78;;;1.98;;
57467;SDS011;43311;51.196;7.518;2023-07-20T09:56:35;3.45;;;1.90;;
57467;SDS011;43311;51.196;7.518;2023-07-20T09:59:02;3.25;;;1.92;;
57467;SDS011;43311;51.196;7.518;2023-07-20T10:01:29;2.78;;;1.80;;
57467;SDS011;43311;51.196;7.518;2023-07-20T10:03:56;2.35;;;1.50;;
57467;SDS011;43311;51.196;7.518;2023-07-20T10:06:23;2.25;;;1.65;;
57467;SDS011;43311;51.196;7.518;2023-07-20T10:08:52;3.70;;;2.30;;
57467;SDS011;43311;51.196;7.518;2023-07-20T10:11:18;2.58;;;1.70;;
57467;SDS011;43311;51.196;7.518;2023-07-20T10:13:46;2.65;;;1.67;;
57467;SDS011;43311;51.196;7.518;2023-07-20T10:16:20;3.08;;;2.10;;
57467;SDS011;43311;51.196;7.518;2023-07-20T10:21:51;2.00;;;1.52;;
57467;SDS011;43311;51.196;7.518;2023-07-20T10:24:24;1.98;;;1.63;;
57467;SDS011;43311;51.196;7.518;2023-07-20T10:26:51;1.80;;;1.27;;
57467;SDS011;43311;51.196;7.518;2023-07-20T10:29:16;2.63;;;1.52;;
57467;SDS011;43311;51.196;7.518;2023-07-20T10:31:42;1.88;;;1.42;;
57467;SDS011;43311;51.196;7.518;2023-07-20T10:34:09;2.63;;;1.83;;
57467;SDS011;43311;51.196;7.518;2023-07-20T10:36:35;1.90;;;1.40;;
57467;SDS011;43311;51.196;7.518;2023-07-20T10:39:26;1.75;;;1.48;;
57467;SDS011;43311;51.196;7.518;2023-07-20T10:41:59;2.35;;;2.03;;
57467;SDS011;43311;51.196;7.518;2023-07-20T10:44:29;2.05;;;1.58;;
57467;SDS011;43311;51.196;7.518;2023-07-20T10:46:59;2.15;;;1.67;;
57467;SDS011;43311;51.196;7.518;2023-07-20T10:49:26;2.72;;;1.88;;
57467;SDS011;43311;51.196;7.518;2023-07-20T10:51:58;2.55;;;1.90;;
57467;SDS011;43311;51.196;7.518;2023-07-20T10:56:57;2.38;;;1.65;;
57467;SDS011;43311;51.196;7.518;2023-07-20T10:59:46;2.33;;;1.50;;
57467;SDS011;43311;51.196;7.518;2023-07-20T11:02:12;2.67;;;1.75;;
57467;SDS011;43311;51.196;7.518;2023-07-20T11:07:03;2.38;;;1.83;;
57467;SDS011;43311;51.196;7.518;2023-07-20T11:09:33;2.95;;;2.00;;
57467;SDS011;43311;51.196;7.518;2023-07-20T11:12:10;2.08;;;1.75;;
57467;SDS011;43311;51.196;7.518;2023-07-20T11:14:42;3.63;;;2.80;;
57467;SDS011;43311;51.196;7.518;2023-07-20T11:17:15;2.75;;;2.45;;
57467;SDS011;43311;51.196;7.518;2023-07-20T11:19:47;3.30;;;2.83;;
57467;SDS011;43311;51.196;7.518;2023-07-20T11:22:20;3.45;;;3.08;;
57467;SDS011;43311;51.196;7.518;2023-07-20T11:24:47;3.25;;;2.95;;
57467;SDS011;43311;51.196;7.518;2023-07-20T11:27:14;3.07;;;2.77;;
57467;SDS011;43311;51.196;7.518;2023-07-20T11:29:40;4.07;;;3.00;;
57467;SDS011;43311;51.196;7.518;2023-07-20T11:32:06;4.15;;;2.95;;
57467;SDS011;43311;51.196;7.518;2023-07-20T11:34:32;3.85;;;2.83;;
57467;SDS011;43311;51.196;7.518;2023-07-20T11:36:58;5.53;;;3.33;;
57467;SDS011;43311;51.196;7.518;2023-07-20T11:39:26;3.80;;;3.40;;
57467;SDS011;43311;51.196;7.518;2023-07-20T11:41:57;3.63;;;3.00;;
57467;SDS011;43311;51.196;7.518;2023-07-20T11:44:25;3.67;;;2.75;;
57467;SDS011;43311;51.196;7.518;2023-07-20T11:49:28;3.17;;;2.88;;
57467;SDS011;43311;51.196;7.518;2023-07-20T11:51:55;3.33;;;2.95;;
57467;SDS011;43311;51.196;7.518;2023-07-20T11:54:22;4.30;;;3.43;;
57467;SDS011;43311;51.196;7.518;2023-07-20T11:56:48;3.30;;;2.85;;
57467;SDS011;43311;51.196;7.518;2023-07-20T11:59:14;3.78;;;3.20;;
57467;SDS011;43311;51.196;7.518;2023-07-20T12:01:39;3.80;;;2.97;;
57467;SDS011;43311;51.196;7.518;2023-07-20T12:04:04;5.30;;;2.53;;
57467;SDS011;43311;51.196;7.518;2023-07-20T12:06:32;3.28;;;2.97;;
57467;SDS011;43311;51.196;7.518;2023-07-20T12:08:58;4.60;;;2.88;;
57467;SDS011;43311;51.196;7.518;2023-07-20T12:11:33;2.38;;;2.17;;
57467;SDS011;43311;51.196;7.518;2023-07-20T12:14:00;2.85;;;2.33;;
57467;SDS011;43311;51.196;7.518;2023-07-20T12:16:29;2.65;;;2.45;;
57467;SDS011;43311;51.196;7.518;2023-07-20T12:19:11;3.58;;;2.30;;
57467;SDS011;43311;51.196;7.518;2023-07-20T12:21:38;2.83;;;2.40;;
57467;SDS011;43311;51.196;7.518;2023-07-20T12:24:07;2.40;;;2.20;;
57467;SDS011;43311;51.196;7.518;2023-07-20T12:26:35;4.53;;;2.10;;
57467;SDS011;43311;51.196;7.518;2023-07-20T12:29:00;3.25;;;1.90;;
57467;SDS011;43311;51.196;7.518;2023-07-20T12:31:28;3.47;;;1.85;;
57467;SDS011;43311;51.196;7.518;2023-07-20T12:33:55;3.92;;;1.90;;
57467;SDS011;43311;51.196;7.518;2023-07-20T12:36:21;2.60;;;1.70;;
57467;SDS011;43311;51.196;7.518;2023-07-20T12:38:47;4.60;;;2.05;;
57467;SDS011;43311;51.196;7.518;2023-07-20T12:41:13;4.55;;;1.70;;
57467;SDS011;43311;51.196;7.518;2023-07-20T12:43:48;4.20;;;2.30;;
57467;SDS011;43311;51.196;7.518;2023-07-20T12:46:14;2.78;;;1.75;;
57467;SDS011;43311;51.196;7.518;2023-07-20T12:48:40;3.78;;;1.80;;
57467;SDS011;43311;51.196;7.518;2023-07-20T12:51:10;2.20;;;1.85;;
57467;SDS011;43311;51.196;7.518;2023-07-20T12:53:36;2.35;;;1.65;;
57467;SDS011;43311;51.196;7.518;2023-07-20T12:56:02;1.95;;;1.77;;
57467;SDS011;43311;51.196;7.518;2023-07-20T12:58:28;2.25;;;1.70;;
57467;SDS011;43311;51.196;7.518;2023-07-20T13:00:53;2.42;;;2.10;;
57467;SDS011;43311;51.196;7.518;2023-07-20T13:03:19;3.38;;;2.20;;
57467;SDS011;43311;51.196;7.518;2023-07-20T13:05:45;2.63;;;2.40;;
57467;SDS011;43311;51.196;7.518;2023-07-20T13:08:11;2.85;;;2.35;;
57467;SDS011;43311;51.196;7.518;2023-07-20T13:10:37;3.03;;;2.20;;
57467;SDS011;43311;51.196;7.518;2023-07-20T13:13:06;3.00;;;2.47;;
57467;SDS011;43311;51.196;7.518;2023-07-20T13:15:32;4.10;;;2.13;;
57467;SDS011;43311;51.196;7.518;2023-07-20T13:18:05;2.30;;;2.10;;
57467;SDS011;43311;51.196;7.518;2023-07-20T13:20:30;2.40;;;1.90;;
57467;SDS011;43311;51.196;7.518;2023-07-20T13:22:57;5.75;;;2.88;;
57467;SDS011;43311;51.196;7.518;2023-07-20T13:25:22;2.25;;;2.05;;
57467;SDS011;43311;51.196;7.518;2023-07-20T13:27:48;2.00;;;1.77;;
57467;SDS011;43311;51.196;7.518;2023-07-20T13:30:13;2.55;;;1.85;;
57467;SDS011;43311;51.196;7.518;2023-07-20T13:32:44;2.67;;;2.17;;
57467;SDS011;43311;51.196;7.518;2023-07-20T13:35:13;2.63;;;1.85;;
57467;SDS011;43311;51.196;7.518;2023-07-20T13:37:38;2.20;;;1.80;;
57467;SDS011;43311;51.196;7.518;2023-07-20T13:40:04;3.38;;;1.95;;
57467;SDS011;43311;51.196;7.518;2023-07-20T13:42:30;1.77;;;1.60;;
57467;SDS011;43311;51.196;7.518;2023-07-20T13:44:57;2.55;;;1.70;;
57467;SDS011;43311;51.196;7.518;2023-07-20T13:47:22;2.28;;;1.73;;
57467;SDS011;43311;51.196;7.518;2023-07-20T13:49:48;2.40;;;1.90;;
57467;SDS011;43311;51.196;7.518;2023-07-20T13:52:13;2.00;;;1.70;;
57467;SDS011;43311;51.196;7.518;2023-07-20T13:54:39;3.42;;;1.90;;
57467;SDS011;43311;51.196;7.518;2023-07-20T13:57:05;3.78;;;2.00;;
57467;SDS011;43311;51.196;7.518;2023-07-20T13:59:30;2.92;;;1.80;;
57467;SDS011;43311;51.196;7.518;2023-07-20T14:01:56;2.15;;;1.50;;
57467;SDS011;43311;51.196;7.518;2023-07-20T14:04:21;2.80;;;2.08;;
57467;SDS011;43311;51.196;7.518;2023-07-20T14:06:46;3.45;;;1.88;;
57467;SDS011;43311;51.196;7.518;2023-07-20T14:09:12;3.13;;;1.90;;
57467;SDS011;43311;51.196;7.518;2023-07-20T14:11:38;2.08;;;1.33;;
57467;SDS011;43311;51.196;7.518;2023-07-20T14:14:03;2.35;;;1.60;;
57467;SDS011;43311;51.196;7.518;2023-07-20T14:16:29;2.22;;;1.50;;
57467;SDS011;43311;51.196;7.518;2023-07-20T14:18:54;4.05;;;1.52;;
57467;SDS011;43311;51.196;7.518;2023-07-20T14:21:20;3.50;;;1.75;;
57467;SDS011;43311;51.196;7.518;2023-07-20T14:23:47;2.28;;;1.48;;
57467;SDS011;43311;51.196;7.518;2023-07-20T14:26:14;2.25;;;1.90;;
57467;SDS011;43311;51.196;7.518;2023-07-20T14:28:42;2.72;;;1.92;;
57467;SDS011;43311;51.196;7.518;2023-07-20T14:31:29;2.45;;;1.90;;
57467;SDS011;43311;51.196;7.518;2023-07-20T14:33:54;2.83;;;1.92;;
57467;SDS011;43311;51.196;7.518;2023-07-20T14:36:20;4.03;;;2.45;;
57467;SDS011;43311;51.196;7.518;2023-07-20T14:38:45;3.35;;;2.42;;
57467;SDS011;43311;51.196;7.518;2023-07-20T14:41:11;3.67;;;1.75;;
57467;SDS011;43311;51.196;7.518;2023-07-20T14:43:37;2.10;;;1.90;;
57467;SDS011;43311;51.196;7.518;2023-07-20T14:46:03;2.13;;;1.45;;
57467;SDS011;43311;51.196;7.518;2023-07-20T14:48:29;1.83;;;1.27;;
57467;SDS011;43311;51.196;7.518;2023-07-20T14:50:54;2.55;;;1.10;;
57467;SDS011;43311;51.196;7.518;2023-07-20T14:53:20;3.53;;;1.00;;
57467;SDS011;43311;51.196;7.518;2023-07-20T14:55:45;1.98;;;1.13;;
57467;SDS011;43311;51.196;7.518;2023-07-20T14:58:10;1.60;;;1.00;;
57467;SDS011;43311;51.196;7.518;2023-07-20T15:00:36;1.80;;;0.98;;
57467;SDS011;43311;51.196;7.518;2023-07-20T15:03:02;1.60;;;0.98;;